createdAt,value
2018-12-22T00:00:36.937Z,95821.09
2018-12-22T00:03:02.903Z,95829.26
2018-12-22T00:05:28.876Z,95833.23
2018-12-22T00:07:54.883Z,95845.93
2018-12-22T00:10:20.901Z,95841.95
2018-12-22T00:12:46.914Z,95846.08
2018-12-22T00:15:12.899Z,95847.94
2018-12-22T00:17:38.883Z,95843.11
2018-12-22T00:20:04.925Z,95840.36
2018-12-22T00:22:30.888Z,95861.12
2018-12-22T00:24:56.889Z,95866.84
2018-12-22T00:27:22.923Z,95867.98
2018-12-22T00:29:48.907Z,95867.02
2018-12-22T00:32:14.905Z,95867.76
2018-12-22T00:34:40.919Z,95870.81
2018-12-22T00:37:06.901Z,95868.95
2018-12-22T00:39:32.938Z,95865.23
2018-12-22T00:41:58.984Z,95860.08
2018-12-22T00:44:25.001Z,95850.20
2018-12-22T00:46:50.999Z,95847.53
2018-12-22T00:49:16.987Z,95842.62
2018-12-22T00:51:42.963Z,95843.03
2018-12-22T00:54:09.002Z,95840.44
2018-12-22T00:56:34.971Z,95833.34
2018-12-22T00:59:00.957Z,95832.75
2018-12-22T01:01:26.965Z,95824.69
2018-12-22T01:03:52.998Z,95815.63
2018-12-22T01:06:18.982Z,95825.25
2018-12-22T01:08:44.962Z,95817.82
2018-12-22T01:11:11.026Z,95812.81
2018-12-22T01:13:37.007Z,95804.09
2018-12-22T01:16:03.054Z,95810.55
2018-12-22T01:18:29.026Z,95813.30
2018-12-22T01:20:54.991Z,95812.33
2018-12-22T01:23:20.961Z,95811.11
2018-12-22T01:25:46.968Z,95815.86
2018-12-22T01:28:12.966Z,95815.08
2018-12-22T01:30:38.953Z,95810.88
2018-12-22T01:33:04.968Z,95808.36
2018-12-22T01:35:30.963Z,95805.87
2018-12-22T01:37:56.984Z,95805.80
2018-12-22T01:40:23.000Z,95791.95
2018-12-22T01:42:48.996Z,95799.38
2018-12-22T01:45:14.979Z,95804.09
2018-12-22T01:47:40.999Z,95796.81
2018-12-22T01:50:07.025Z,95793.88
2018-12-22T01:52:33.007Z,95790.91
2018-12-22T01:54:58.992Z,95787.75
2018-12-22T01:57:25.028Z,95778.55
2018-12-22T01:59:51.014Z,95789.13
2018-12-22T02:02:16.994Z,95790.35
2018-12-22T02:04:43.013Z,95785.82
2018-12-22T02:07:09.007Z,95780.81
2018-12-22T02:09:35.029Z,95777.80
2018-12-22T02:12:01.029Z,95772.23
2018-12-22T02:14:27.014Z,95772.70
2018-12-22T02:16:53.047Z,95769.96
2018-12-22T02:19:19.027Z,95774.72
2018-12-22T02:21:45.008Z,95776.64
2018-12-22T02:24:11.035Z,95783.77
2018-12-22T02:26:37.019Z,95779.65
2018-12-22T02:29:03.045Z,95772.19
2018-12-22T02:31:29.031Z,95768.40
2018-12-22T02:33:55.053Z,95755.06
2018-12-22T02:36:21.023Z,95756.84
2018-12-22T02:38:46.987Z,95751.35
2018-12-22T02:41:13.015Z,95751.76
2018-12-22T02:43:38.990Z,95744.70
2018-12-22T02:46:04.972Z,95750.12
2018-12-22T02:48:31.008Z,95747.53
2018-12-22T02:50:57.010Z,95743.81
2018-12-22T02:53:23.014Z,95734.19
2018-12-22T02:55:49.035Z,95730.63
2018-12-22T02:58:15.008Z,95724.50
2018-12-22T03:00:41.004Z,95714.73
2018-12-22T03:03:07.024Z,95710.68
2018-12-22T03:05:33.043Z,95727.17
2018-12-22T03:07:59.446Z,95721.42
2018-12-22T03:10:25.019Z,95728.70
2018-12-22T03:12:51.030Z,95722.39
2018-12-22T03:15:17.033Z,95722.64
2018-12-22T03:17:43.017Z,95715.44
2018-12-22T03:20:09.056Z,95718.74
2018-12-22T03:22:35.027Z,95720.67
2018-12-22T03:25:01.049Z,95717.93
2018-12-22T03:27:27.061Z,95720.86
2018-12-22T03:29:53.106Z,95716.47
2018-12-22T03:32:19.069Z,95711.06
2018-12-22T03:34:45.076Z,95705.63
2018-12-22T03:37:11.046Z,95708.97
2018-12-22T03:39:37.004Z,95700.80
2018-12-22T03:42:03.033Z,95700.73
2018-12-22T03:44:28.982Z,95707.19
2018-12-22T03:46:54.964Z,95709.37
2018-12-22T03:49:20.957Z,95710.41
2018-12-22T03:51:46.933Z,95698.54
2018-12-22T03:54:12.919Z,95690.14
2018-12-22T03:56:38.926Z,95692.63
2018-12-22T03:59:04.951Z,95699.98
2018-12-22T04:01:30.928Z,95695.45
2018-12-22T04:03:56.954Z,95680.19
2018-12-22T04:06:22.981Z,95680.34
2018-12-22T04:08:48.961Z,95680.90
2018-12-22T04:11:14.928Z,95685.69
2018-12-22T04:13:41.005Z,95685.61
2018-12-22T04:16:06.999Z,95693.67
2018-12-22T04:18:32.991Z,95692.30
2018-12-22T04:20:58.964Z,95701.51
2018-12-22T04:23:24.998Z,95687.39
2018-12-22T04:25:50.966Z,95669.91
2018-12-22T04:28:16.993Z,95676.41
2018-12-22T04:30:43.018Z,95689.95
2018-12-22T04:33:08.998Z,95695.05
2018-12-22T04:35:35.070Z,95690.30
2018-12-22T04:38:01.009Z,95699.02
2018-12-22T04:40:26.998Z,95696.67
2018-12-22T04:42:52.994Z,95698.05
2018-12-22T04:45:18.978Z,95692.96
2018-12-22T04:47:44.971Z,95695.11
2018-12-22T04:50:10.989Z,95696.67
2018-12-22T04:52:36.936Z,95710.56
2018-12-22T04:55:02.910Z,95696.48
2018-12-22T04:57:28.914Z,95705.39
2018-12-22T04:59:54.923Z,95686.24
2018-12-22T05:02:20.886Z,95691.96
2018-12-22T05:04:46.853Z,95698.61
2018-12-22T05:07:12.874Z,95703.36
2018-12-22T05:09:38.855Z,95703.70
2018-12-22T05:12:04.821Z,95715.25
2018-12-22T05:14:30.836Z,95715.50
2018-12-22T05:16:56.835Z,95716.87
2018-12-22T05:19:22.796Z,95726.24
2018-12-22T05:21:48.808Z,95722.71
2018-12-22T05:24:14.794Z,95710.91
2018-12-22T05:26:40.773Z,95718.52
2018-12-22T05:29:06.784Z,95717.55
2018-12-22T05:31:32.772Z,95725.95
2018-12-22T05:33:58.809Z,95720.86
2018-12-22T05:36:24.819Z,95728.55
2018-12-22T05:38:50.805Z,95729.10
2018-12-22T05:41:16.880Z,95725.13
2018-12-22T05:43:42.824Z,95709.13
2018-12-22T05:46:08.793Z,95721.53
2018-12-22T05:48:34.756Z,95729.84
2018-12-22T05:51:00.759Z,95726.69
2018-12-22T05:53:26.740Z,95736.80
2018-12-22T05:55:52.740Z,95725.73
2018-12-22T05:58:18.732Z,95727.45
2018-12-22T06:00:44.718Z,95733.28
2018-12-22T06:03:10.752Z,95727.53
2018-12-22T06:05:36.717Z,95714.12
2018-12-22T06:08:02.694Z,95715.28
2018-12-22T06:10:28.737Z,95728.42
2018-12-22T06:12:54.715Z,95734.51
2018-12-22T06:15:20.701Z,95734.66
2018-12-22T06:17:46.708Z,95725.37
2018-12-22T06:20:12.685Z,95734.44
2018-12-22T06:22:38.699Z,95753.26
2018-12-22T06:25:04.679Z,95747.28
2018-12-22T06:27:30.708Z,95718.26
2018-12-22T06:29:56.691Z,95730.55
2018-12-22T06:32:22.666Z,95752.94
2018-12-22T06:34:48.724Z,95772.98
2018-12-22T06:37:14.692Z,95773.72
2018-12-22T06:39:40.658Z,95753.90
2018-12-22T06:42:06.684Z,95757.87
2018-12-22T06:44:32.664Z,95759.47
2018-12-22T06:46:58.633Z,95755.89
2018-12-22T06:49:24.991Z,95744.42
2018-12-22T06:51:51.019Z,95744.90
2018-12-22T06:54:16.979Z,95748.75
2018-12-22T06:56:42.960Z,95747.05
2018-12-22T06:59:08.981Z,95738.98
2018-12-22T07:01:34.960Z,95732.59
2018-12-22T07:04:00.971Z,95738.31
2018-12-22T07:06:26.977Z,95734.67
2018-12-22T07:08:53.311Z,95722.12
2018-12-22T07:11:19.408Z,95717.55
2018-12-22T07:13:45.384Z,95738.16
2018-12-22T07:16:11.574Z,95757.22
2018-12-22T07:18:37.563Z,95753.34
2018-12-22T07:21:03.550Z,95755.02
2018-12-22T07:23:29.582Z,95743.88
2018-12-22T07:25:55.556Z,95748.16
2018-12-22T07:28:21.534Z,95751.16
2018-12-22T07:30:47.559Z,95746.63
2018-12-22T07:33:13.723Z,95759.55
2018-12-22T07:35:39.708Z,95760.14
2018-12-22T07:38:05.754Z,95758.84
2018-12-22T07:40:32.390Z,95766.91
2018-12-22T07:42:58.413Z,95768.76
2018-12-22T07:45:24.452Z,95771.66
2018-12-22T07:47:50.472Z,95774.48
2018-12-22T07:50:16.447Z,95783.31
2018-12-22T07:52:42.527Z,95785.25
2018-12-22T07:55:08.564Z,95779.41
2018-12-22T07:57:41.119Z,95783.38
2018-12-22T08:00:07.038Z,95780.78
2018-12-22T08:02:33.015Z,95786.28
2018-12-22T08:04:59.010Z,95779.27
2018-12-22T08:07:25.053Z,95794.37
2018-12-22T08:09:51.055Z,95783.53
2018-12-22T08:12:17.032Z,95786.47
2018-12-22T08:14:43.051Z,95800.20
2018-12-22T08:17:09.182Z,95796.09
2018-12-22T08:19:35.063Z,95780.16
2018-12-22T08:22:01.106Z,95788.40
2018-12-22T08:24:27.138Z,95786.47
2018-12-22T08:26:53.118Z,95783.47
2018-12-22T08:29:19.158Z,95786.22
2018-12-22T08:31:45.492Z,95786.22
2018-12-22T08:34:11.612Z,95785.87
2018-12-22T08:36:37.687Z,95787.25
2018-12-22T08:39:03.877Z,95786.28
2018-12-22T08:41:29.926Z,95779.41
2018-12-22T08:43:55.927Z,95782.41
2018-12-22T08:46:21.981Z,95789.22
2018-12-22T08:48:48.485Z,95786.69
2018-12-22T08:51:14.851Z,95775.62
2018-12-22T08:53:41.574Z,95784.09
2018-12-22T08:56:08.322Z,95785.02
2018-12-22T08:58:34.289Z,95789.37
2018-12-22T09:01:00.337Z,95789.37
2018-12-22T09:03:26.352Z,95779.41
2018-12-22T09:05:52.344Z,95779.73
2018-12-22T09:08:18.390Z,95770.56
2018-12-22T09:10:44.756Z,95757.89
2018-12-22T09:13:10.745Z,95766.36
2018-12-22T09:15:36.825Z,95763.46
2018-12-22T09:18:02.918Z,95757.77
2018-12-22T09:20:28.918Z,95761.08
2018-12-22T09:22:54.985Z,95754.13
2018-12-22T09:25:20.985Z,95746.45
2018-12-22T09:27:46.974Z,95743.69
2018-12-22T09:30:12.989Z,95734.84
2018-12-22T09:32:39.067Z,95725.95
2018-12-22T09:35:04.943Z,95724.36
2018-12-22T09:37:30.972Z,95724.09
2018-12-22T09:39:56.938Z,95709.75
2018-12-22T09:42:22.952Z,95712.69
2018-12-22T09:44:49.072Z,95717.94
2018-12-22T09:47:15.060Z,95716.81
2018-12-22T09:49:41.088Z,95708.31
2018-12-22T09:52:07.051Z,95704.94
2018-12-22T09:54:33.040Z,95701.02
2018-12-22T09:56:59.039Z,95688.91
2018-12-22T09:59:25.021Z,95694.39
2018-12-22T10:01:51.001Z,95690.02
2018-12-22T10:04:17.066Z,95681.05
2018-12-22T10:06:43.019Z,95675.50
2018-12-22T10:09:08.978Z,95678.02
2018-12-22T10:11:35.008Z,95676.36
2018-12-22T10:14:01.202Z,95660.80
2018-12-22T10:16:27.235Z,95665.37
2018-12-22T10:18:53.412Z,95638.27
2018-12-22T10:21:19.561Z,95638.27
2018-12-22T10:23:45.427Z,95640.53
2018-12-22T10:26:11.448Z,95637.94
2018-12-22T10:28:37.466Z,95633.66
2018-12-22T10:31:03.477Z,95629.62
2018-12-22T10:33:29.463Z,95638.68
2018-12-22T10:35:55.890Z,95635.52
2018-12-22T10:38:21.863Z,95615.02
2018-12-22T10:40:47.867Z,95614.91
2018-12-22T10:43:13.881Z,95601.00
2018-12-22T10:45:39.873Z,95604.78
2018-12-22T10:48:05.847Z,95602.38
2018-12-22T10:50:31.875Z,95601.75
2018-12-22T10:52:57.859Z,95608.63
2018-12-22T10:55:23.888Z,95594.63
2018-12-22T10:57:50.737Z,95601.69
2018-12-22T11:00:16.722Z,95601.91
2018-12-22T11:02:42.716Z,95601.27
2018-12-22T11:05:09.242Z,95597.16
2018-12-22T11:07:35.225Z,95575.88
2018-12-22T11:10:01.327Z,95577.81
2018-12-22T11:12:27.334Z,95577.56
2018-12-22T11:14:53.347Z,95563.59
2018-12-22T11:17:19.670Z,95559.06
2018-12-22T11:19:45.645Z,95550.41
2018-12-22T11:22:11.638Z,95550.19
2018-12-22T11:24:37.702Z,95548.34
2018-12-22T11:27:03.697Z,95546.72
2018-12-22T11:29:29.700Z,95548.28
2018-12-22T11:31:55.679Z,95547.06
2018-12-22T11:34:21.663Z,95549.03
2018-12-22T11:36:47.677Z,95535.44
2018-12-22T11:39:13.834Z,95534.81
2018-12-22T11:41:39.822Z,95533.66
2018-12-22T11:44:05.852Z,95532.69
2018-12-22T11:46:31.832Z,95525.01
2018-12-22T11:48:58.980Z,95521.45
2018-12-22T11:51:24.980Z,95513.80
2018-12-22T11:53:50.988Z,95522.20
2018-12-22T11:56:16.974Z,95523.57
2018-12-22T11:58:43.025Z,95526.57
2018-12-22T12:01:08.989Z,95529.32
2018-12-22T12:03:34.974Z,95533.44
2018-12-22T12:06:00.998Z,95533.81
2018-12-22T12:08:26.997Z,95534.41
2018-12-22T12:10:52.971Z,95531.25
2018-12-22T12:13:19.029Z,95522.73
2018-12-22T12:15:45.000Z,95531.73
2018-12-22T12:18:11.198Z,95521.30
2018-12-22T12:20:37.228Z,95523.88
2018-12-22T12:23:03.233Z,95521.92
2018-12-22T12:25:29.272Z,95520.05
2018-12-22T12:27:55.317Z,95525.95
2018-12-22T12:30:21.315Z,95514.39
2018-12-22T12:32:47.318Z,95518.10
2018-12-22T12:35:13.499Z,95514.05
2018-12-22T12:37:39.504Z,95506.92
2018-12-22T12:40:07.910Z,95504.83
2018-12-22T12:42:34.719Z,95510.48
2018-12-22T12:45:00.570Z,95513.02
2018-12-22T12:47:26.529Z,95510.89
2018-12-22T12:49:52.539Z,95510.61
2018-12-22T12:52:18.547Z,95505.61
2018-12-22T12:54:44.518Z,95500.83
2018-12-22T12:57:10.575Z,95497.64
2018-12-22T12:59:36.565Z,95499.33
2018-12-22T13:02:02.620Z,95488.20
2018-12-22T13:04:28.776Z,95485.46
2018-12-22T13:06:54.692Z,95490.73
2018-12-22T13:09:20.691Z,95487.77
2018-12-22T13:11:46.695Z,95488.83
2018-12-22T13:14:12.749Z,95487.58
2018-12-22T13:16:38.711Z,95479.18
2018-12-22T13:19:04.726Z,95478.16
2018-12-22T13:21:30.755Z,95492.23
2018-12-22T13:23:56.753Z,95491.36
2018-12-22T13:26:22.764Z,95485.64
2018-12-22T13:28:48.738Z,95499.16
2018-12-22T13:31:14.755Z,95498.51
2018-12-22T13:33:40.837Z,95500.35
2018-12-22T13:36:06.823Z,95499.54
2018-12-22T13:38:33.337Z,95492.73
2018-12-22T13:40:58.949Z,95498.42
2018-12-22T13:43:24.930Z,95498.63
2018-12-22T13:45:51.391Z,95494.58
2018-12-22T13:48:17.626Z,95498.55
2018-12-22T13:50:43.404Z,95485.37
2018-12-22T13:53:09.397Z,95492.98
2018-12-22T13:55:35.377Z,95488.23
2018-12-22T13:58:01.353Z,95484.42
2018-12-22T14:00:27.400Z,95475.81
2018-12-22T14:02:53.364Z,95474.59
2018-12-22T14:05:19.374Z,95478.93
2018-12-22T14:07:45.387Z,95480.71
2018-12-22T14:10:11.390Z,95477.06
2018-12-22T14:12:37.357Z,95480.75
2018-12-22T14:15:03.475Z,95473.69
2018-12-22T14:17:29.462Z,95477.56
2018-12-22T14:19:55.429Z,95480.03
2018-12-22T14:22:21.454Z,95466.97
2018-12-22T14:24:47.535Z,95465.19
2018-12-22T14:27:13.590Z,95458.78
2018-12-22T14:29:39.600Z,95465.50
2018-12-22T14:32:05.884Z,95471.47
2018-12-22T14:34:31.912Z,95469.91
2018-12-22T14:36:57.897Z,95465.28
2018-12-22T14:39:23.911Z,95463.91
2018-12-22T14:41:50.424Z,95461.16
2018-12-22T14:44:16.414Z,95471.91
2018-12-22T14:46:42.403Z,95463.97
2018-12-22T14:49:08.420Z,95471.59
2018-12-22T14:51:34.414Z,95466.87
2018-12-22T14:54:00.492Z,95466.03
2018-12-22T14:56:26.715Z,95467.19
2018-12-22T14:58:56.572Z,95470.74
2018-12-22T15:01:22.558Z,95472.69
2018-12-22T15:03:48.551Z,95475.84
2018-12-22T15:06:14.904Z,95481.15
2018-12-22T15:08:40.907Z,95486.58
2018-12-22T15:11:06.888Z,95487.24
2018-12-22T15:13:32.910Z,95483.27
2018-12-22T15:15:59.347Z,95484.49
2018-12-22T15:18:25.351Z,95489.39
2018-12-22T15:20:51.371Z,95485.98
2018-12-22T15:23:17.353Z,95476.52
2018-12-22T15:25:43.333Z,95497.55
2018-12-22T15:28:09.364Z,95496.92
2018-12-22T15:30:35.847Z,95489.64
2018-12-22T15:33:01.846Z,95481.39
2018-12-22T15:35:27.836Z,95469.74
2018-12-22T15:37:53.876Z,95464.84
2018-12-22T15:40:19.849Z,95471.94
2018-12-22T15:42:45.870Z,95463.88
2018-12-22T15:45:11.855Z,95459.50
2018-12-22T15:47:37.882Z,95456.75
2018-12-22T15:50:03.854Z,95447.94
2018-12-22T15:52:29.898Z,95453.19
2018-12-22T15:54:55.885Z,95461.38
2018-12-22T15:57:31.647Z,95464.13
2018-12-22T15:59:57.622Z,95474.40
2018-12-22T16:02:23.603Z,95480.05
2018-12-22T16:04:49.644Z,95482.24
2018-12-22T16:07:15.983Z,95481.68
2018-12-22T16:09:41.947Z,95479.84
2018-12-22T16:12:08.080Z,95473.19
2018-12-22T16:14:34.056Z,95473.53
2018-12-22T16:17:00.115Z,95476.09
2018-12-22T16:19:26.135Z,95474.34
2018-12-22T16:21:52.117Z,95470.03
2018-12-22T16:24:18.180Z,95471.00
2018-12-22T16:26:44.208Z,95459.09
2018-12-22T16:29:10.214Z,95463.34
2018-12-22T16:31:36.280Z,95457.66
2018-12-22T16:34:02.334Z,95458.31
2018-12-22T16:36:28.391Z,95463.91
2018-12-22T16:38:54.510Z,95466.59
2018-12-22T16:41:20.517Z,95471.28
2018-12-22T16:43:46.483Z,95474.22
2018-12-22T16:46:12.521Z,95466.69
2018-12-22T16:48:38.525Z,95468.72
2018-12-22T16:51:04.524Z,95475.19
2018-12-22T16:53:30.698Z,95476.63
2018-12-22T16:55:56.708Z,95472.50
2018-12-22T16:58:22.741Z,95481.59
2018-12-22T17:00:48.738Z,95477.88
2018-12-22T17:03:14.716Z,95468.88
2018-12-22T17:05:40.846Z,95484.62
2018-12-22T17:08:06.735Z,95481.15
2018-12-22T17:10:32.718Z,95481.99
2018-12-22T17:12:58.726Z,95485.33
2018-12-22T17:15:24.930Z,95485.49
2018-12-22T17:17:50.912Z,95486.77
2018-12-22T17:20:16.914Z,95489.83
2018-12-22T17:22:42.941Z,95478.77
2018-12-22T17:25:08.924Z,95480.34
2018-12-22T17:27:34.912Z,95493.67
2018-12-22T17:30:00.937Z,95494.23
2018-12-22T17:32:26.917Z,95496.02
2018-12-22T17:34:52.940Z,95499.39
2018-12-22T17:37:18.972Z,95494.30
2018-12-22T17:39:44.982Z,95494.48
2018-12-22T17:42:10.969Z,95498.83
2018-12-22T17:44:36.965Z,95491.90
2018-12-22T17:47:03.560Z,95495.20
2018-12-22T17:49:29.529Z,95489.49
2018-12-22T17:51:55.525Z,95485.93
2018-12-22T17:54:21.590Z,95481.34
2018-12-22T17:56:47.682Z,95479.59
2018-12-22T17:59:13.997Z,95473.22
2018-12-22T18:01:40.006Z,95467.66
2018-12-22T18:04:05.978Z,95466.03
2018-12-22T18:06:32.016Z,95460.10
2018-12-22T18:08:58.007Z,95459.85
2018-12-22T18:11:24.017Z,95458.41
2018-12-22T18:13:50.009Z,95454.86
2018-12-22T18:16:16.045Z,95452.64
2018-12-22T18:18:42.255Z,95462.88
2018-12-22T18:21:08.209Z,95449.23
2018-12-22T18:23:34.279Z,95456.30
2018-12-22T18:26:00.276Z,95457.82
2018-12-22T18:28:26.262Z,95459.20
2018-12-22T18:30:52.300Z,95461.60
2018-12-22T18:33:18.318Z,95481.80
2018-12-22T18:35:44.306Z,95485.42
2018-12-22T18:38:10.362Z,95479.43
2018-12-22T18:40:36.399Z,95490.23
2018-12-22T18:43:02.445Z,95479.72
2018-12-22T18:45:28.415Z,95479.56
2018-12-22T18:47:54.550Z,95483.52
2018-12-22T18:50:20.560Z,95472.25
2018-12-22T18:52:46.551Z,95467.25
2018-12-22T18:55:12.714Z,95459.01
2018-12-22T18:57:38.637Z,95473.50
2018-12-22T19:00:04.632Z,95481.27
2018-12-22T19:02:30.653Z,95486.37
2018-12-22T19:04:56.701Z,95483.22
2018-12-22T19:07:22.687Z,95486.05
2018-12-22T19:09:48.700Z,95494.48
2018-12-22T19:12:14.725Z,95484.52
2018-12-22T19:14:40.709Z,95487.33
2018-12-22T19:17:06.702Z,95492.73
2018-12-22T19:19:32.772Z,95494.33
2018-12-22T19:21:58.764Z,95499.95
2018-12-22T19:24:24.779Z,95503.33
2018-12-22T19:26:50.764Z,95494.92
2018-12-22T19:29:16.847Z,95499.33
2018-12-22T19:31:42.867Z,95503.39
2018-12-22T19:34:08.848Z,95499.45
2018-12-22T19:36:34.832Z,95495.08
2018-12-22T19:39:00.872Z,95494.92
2018-12-22T19:41:26.844Z,95502.95
2018-12-22T19:43:52.849Z,95497.67
2018-12-22T19:46:18.871Z,95496.86
2018-12-22T19:48:44.850Z,95495.27
2018-12-22T19:51:10.832Z,95505.70
2018-12-22T19:53:36.895Z,95502.55
2018-12-22T19:56:02.862Z,95494.70
2018-12-22T19:58:28.878Z,95492.11
2018-12-22T20:00:54.875Z,95500.42
2018-12-22T20:03:20.942Z,95500.58
2018-12-22T20:05:46.918Z,95500.02
2018-12-22T20:08:12.880Z,95496.36
2018-12-22T20:10:38.919Z,95488.62
2018-12-22T20:13:04.939Z,95491.02
2018-12-22T20:15:30.937Z,95486.90
2018-12-22T20:17:56.906Z,95485.15
2018-12-22T20:20:22.931Z,95480.43
2018-12-22T20:22:48.920Z,95483.59
2018-12-22T20:25:14.911Z,95487.90
2018-12-22T20:27:40.916Z,95495.39
2018-12-22T20:30:06.893Z,95497.67
2018-12-22T20:32:32.857Z,95500.48
2018-12-22T20:34:58.878Z,95502.61
2018-12-22T20:37:24.877Z,95505.17
2018-12-22T20:39:50.908Z,95494.17
2018-12-22T20:42:16.881Z,95499.67
2018-12-22T20:44:42.891Z,95496.77
2018-12-22T20:47:08.914Z,95493.39
2018-12-22T20:49:34.902Z,95496.36
2018-12-22T20:52:00.930Z,95497.33
2018-12-22T20:54:26.964Z,95510.52
2018-12-22T20:56:53.029Z,95519.39
2018-12-22T20:59:19.000Z,95524.48
2018-12-22T21:01:45.064Z,95518.98
2018-12-22T21:04:19.638Z,95521.91
2018-12-22T21:06:37.228Z,95512.30
2018-12-22T21:09:03.263Z,95508.58
2018-12-22T21:11:29.175Z,95490.70
2018-12-22T21:13:55.173Z,95487.37
2018-12-22T21:16:21.202Z,95495.80
2018-12-22T21:18:47.162Z,95495.61
2018-12-22T21:21:13.146Z,95492.73
2018-12-22T21:23:39.158Z,95495.73
2018-12-22T21:26:05.167Z,95509.98
2018-12-22T21:28:31.131Z,95500.64
2018-12-22T21:30:57.156Z,95494.58
2018-12-22T21:33:23.127Z,95495.55
2018-12-22T21:35:53.260Z,95485.15
2018-12-22T21:38:15.146Z,95486.12
2018-12-22T21:40:41.144Z,95481.40
2018-12-22T21:43:07.130Z,95487.55
2018-12-22T21:45:33.152Z,95486.27
2018-12-22T21:47:59.133Z,95483.59
2018-12-22T21:50:25.137Z,95480.27
2018-12-22T21:52:51.156Z,95478.91
2018-12-22T21:55:17.120Z,95484.40
2018-12-22T21:57:43.082Z,95483.02
2018-12-22T22:00:09.103Z,95483.65
2018-12-22T22:02:35.124Z,95478.56
2018-12-22T22:05:01.103Z,95485.21
2018-12-22T22:07:27.112Z,95477.34
2018-12-22T22:09:53.140Z,95472.66
2018-12-22T22:12:19.155Z,95469.34
2018-12-22T22:14:45.177Z,95478.97
2018-12-22T22:17:11.164Z,95476.63
2018-12-22T22:19:37.232Z,95469.91
2018-12-22T22:22:03.265Z,95474.84
2018-12-22T22:24:29.244Z,95465.78
2018-12-22T22:26:55.229Z,95473.13
2018-12-22T22:29:21.268Z,95457.94
2018-12-22T22:31:47.294Z,95454.16
2018-12-22T22:34:13.275Z,95449.63
2018-12-22T22:36:39.292Z,95461.78
2018-12-22T22:39:05.297Z,95469.38
2018-12-22T22:41:31.264Z,95469.22
2018-12-22T22:44:00.140Z,95468.00
2018-12-22T22:46:26.141Z,95472.31
2018-12-22T22:48:52.133Z,95463.09
2018-12-22T22:51:22.592Z,95454.45
2018-12-22T22:53:49.942Z,95449.11
2018-12-22T22:56:19.380Z,95453.79
2018-12-22T22:58:54.405Z,95452.61
2018-12-22T23:01:20.403Z,95439.83
2018-12-22T23:03:56.116Z,95452.04
2018-12-22T23:06:22.098Z,95457.29
2018-12-22T23:08:48.701Z,95464.34
2018-12-22T23:11:14.683Z,95462.78
2018-12-22T23:13:40.684Z,95461.41
2018-12-22T23:16:06.649Z,95459.23
2018-12-22T23:18:32.635Z,95454.89
2018-12-22T23:20:58.654Z,95447.61
2018-12-22T23:23:24.642Z,95448.42
2018-12-22T23:25:50.664Z,95441.70
2018-12-22T23:28:16.666Z,95450.20
2018-12-22T23:30:42.637Z,95445.11
2018-12-22T23:33:08.754Z,95444.86
2018-12-22T23:35:34.724Z,95451.17
2018-12-22T23:38:00.681Z,95453.67
2018-12-22T23:40:26.689Z,95451.92
2018-12-22T23:42:52.658Z,95453.11
2018-12-22T23:45:18.673Z,95458.20
2018-12-22T23:47:44.677Z,95451.92
2018-12-22T23:50:10.661Z,95449.89
2018-12-22T23:52:36.646Z,95443.98
2018-12-22T23:55:02.667Z,95450.55
2018-12-22T23:57:28.674Z,95449.33
2018-12-22T23:59:54.691Z,95447.39
